Timeline UpdatesTrip UpdatesNews PostsPvt PostsTravel TipsAdmin PostsConv PostsFollowed PostsChat RequestsBlog PostsPNR Posts

Disclaimer
Search
 
 
Wed Sep 17, 2014 07:01:16 ISTHomeTrainsΣChainsAtlasPNRForumGalleryNewsFAQTripsMembersLoginFeedback
No Recent News for this Train
Other Trains in the News **new
Latest...
..
Tue Jul 01, 2014 (01:24PM)
⇐ Return Journey: Train# 53041

53042/Jaynagar - Howrah Passenger (UnReserved)

Time-Table HAS CHANGED.
Sep 03 (10:18AM)
Change Departure Station:
Change Arrival Station:
Post a Train Travel TipPost a Train Travel Tip **new
Post a Comment/Question/Picture/VideoPost a Comment/Question/Picture/Video
Pantry/Catering
✕ NO Pantry Car
✕ NO Catering
RSA - Rake Sharing
Rake/Coach Composition
Loco-SLR-GS-GS-GS-GS-GS-GS-GS-SLR
Loco
HWH/BWN WDM 2/3A
News    PNR    Forum    Time-Table    Availability    Fare Chart    Map    Arr/Dep History    Trips    Gallery    ΣChains    X/O    Timeline    
Travel Time: 0h 22m    1 halts    Distance: 12 km    Avg Speed: 32 km/hr
Type: Passenger
Zone: ER/Eastern
Departs @ 15:40
Platform# ???
SMTWTFS
Rampurhat/RPH 
Arrives @ 16:02
Platform# ???
SMTWTFS
Mallarpur/MLV 

1 halts. 1 intermediate Stations between Rampurhat and Mallarpur

Show ALL intermediate Stations  Show Old Time-Table

#CodeStation NameX/OArrivesAvgDepartsAvgHaltPFDay#KmSpeedElevZoneAddress
1JYGJaynagar (3)  -18:45---1-507.24268mECRDistt: Madhubani, Bihar
2KJIKhajauli  19:03 19:02-19:04-1 2m--1-495.24070mECRMadhubani, Bihar
3RJARajanagar  19:19 19:18-19:20-1 2m--1-485.93565mECRRajnagar Distt: Madhubani, Bihar
4MBIMadhubani (3)X  19:42 19:37-19:43-1 6m--1-476.04962mECRMadhubani, Bihar
5PDWPandaul  19:55 19:54-19:56-1 2m--1-466.92959mECRMadhubani, Bihar
6SKISakri Junction (5)  20:12-20:17-5m--1-459.12555mECRMadhubani, Bihar
7TRSTarsaraiX  20:32 20:33-20:33 20:35-1 2m--1-452.52054mECRDarbhanga, Bihar
8KKHTKakarghattiO  20:54 20:55-20:55 20:57-1 2m--1-445.9954mECRDarbhanga, Bihar
9DBGDarbhanga Junction (5)  21:45 21:40-21:55 21:50-10m--1-439.53854mECRDarbhanga, Bihar
10LSILaheria Sarai (1)X  22:03 21:58-22:08 22:03-5m11-434.55352mECRDarbhanga, Bihar
11TLWAThalwaraX  22:14 22:08-22:15 22:10-1 2m--1-430.14556mECRDarbhanga, Bihar
12HYTHaiaghatX  22:26 22:18-22:27 22:20-1 2m--1-424.13451mECRDarbhanga, Bihar
13RBZRambhaddarpur  22:37 22:29-22:38 22:31-1 2m--1-419.05751mECRSamastipur, Bihar
14KSPKishanpur  22:46 22:38-22:47 22:40-1 2m--1-412.44751mECRSamastipur, Bihar
15MKPRMuktapur (1)  22:55 22:48-22:56 22:50-1 2m11-406.1853mECRSamastipur, Bihar
16SPJSamastipur Junction (9)  23:20-23:30-10m--1-402.14955mECRSamastipur, Bihar
17UJPUjiarpur (2)X  23:45 23:41-23:46 23:43-1 2m--1-393.04751mECRSamastipur, Bihar
18NAZJNazirGanj (2)  23:58 23:51-23:59 23:53-1 2m--1-386.72851mECRNazirGanj, Bihar
19DSSDalsingh Sarai (2)  00:12 00:10-00:13 00:12-1 2m22-378.916 ECR06278-221238, Bihar
20STJTSathajagat (2)O  00:31 00:29-00:32 00:50-1 21m--2-374.31949mECRSathajagat, Bihar
21BCABachwara Junction (3)  00:46 01:10-00:47 01:12-1 2m--2-367.95349mECRBegusarai, Bihar
22TGATeghra (3)X  01:04 01:22-01:05 01:24-1 2m--2-359.02848mECRBegusarai, Bihar
23BUJBarauni Flag (2)  01:20 01:34-01:21 01:35-1m--2-354.3849mECRDistt: Begusarai, Bihar
24BJUBarauni Junction (9)XO  01:55-02:05-10m42-351.62849mECRBegusarai, Bihar
25DKGSDinkar Gram Simaria (3) new halt!!  02:18-02:20-2m--2-345.61147mECRSimaria Station, Bihar
26RJORajendra Pul (1)  02:36-02:37-1m12-342.73349mECRSimaria, Bihar
27HTZUHathidah Upper (1) new halt!!X  02:43-02:44-1m12-339.44651mECRMurarpur, Bihar
28BRYABarhiya (3)X  03:08 03:07-03:09 03:08-1m--2-322.02147mECRBarahiya, Bihar
29MKBMankathaX  03:36 03:35-03:37 03:36-1m--2-312.64847mECRNational Highway 80, Bihar
30LKRLuckeesarai Junction (2)XO  03:45 03:43-03:46 03:44-1m--2-307.0252mECRLakhisarai, Bihar
31KIULKiul Junction (5)  04:28-04:35-7m--2-305.63653mECRDist. Lakhisarai, Bihar
32DNREDhanauri  04:44 04:45-04:45 04:47-1 2m--2-299.64948mERNational Highway 80, Bihar
33URENUren  04:52 04:53-04:53 04:54-1m--2-294.75845mERUren, Bihar
34KJHKajra (2)  04:58 04:59-04:59 05:00-1m--2-289.95550mERLakhisarai District, Bihar
35AHAAbhaipur (3)  05:07 05:08-05:08 05:10-1 2m--2-282.64852mERAbhaipur, Bihar
36MSDNMasudan (2)  05:14 05:15-05:15 05:17-1 2m--2-278.66045mERMasudan, Bihar
37DRHDharhara (2)  05:22 05:23-05:23 05:25-1 2m--2-272.66555mERDharhara, Bihar
38DRTPDasharathpur (2)X  05:29 05:30-05:30 05:31-1m--2-267.24848mERDharhara, Bihar
39JMPJamalpur Junction (4)X  05:39-05:49-10m--2-260.84259mERJamalpur 06344-243101, Bihar
40RPURRatanpur (2)X  05:57 05:58-05:58 06:00-1 2m--2-254.55846mERRatanpur Railway Station, Bihar
41BUPBariarpur (3)  06:04 06:05-06:05 06:07-1 2m--2-249.61142mERMunger, Bihar
42KPRDKalyanpur Road (3)X  06:13 06:14-06:14 06:16-1 2m--2-248.41040mERMunger, Bihar
43GNNAGangani (2)  06:22 06:23-06:23 06:25-1 2m--2-247.213338mERGangania, Bihar
44SGGSultanGanj (3)  06:31 06:32-06:32 06:37-1 5m--2-231.78042mERSultanganj, Bihar
45MVVMaheshi (2)  06:41 06:42-06:42 06:43-1m--2-225.14137mERTilakpur, Bihar
46AKNAkbarnagar (3)  06:47 06:48-06:48 06:50-1 2m--2-221.65539mERTilakpur, Bihar
47CTMPChhit Makhanpur (2)  06:53 06:54-06:54 06:55-1m--2-218.03138mERBhaunathpur, Bihar
48MPYMurarpur (2)X  06:57 06:58-06:58 06:59-1m--2-216.45938mERMau, Bihar
49NATNathnagar (2)  07:03 07:04-07:04 07:06-1 2m--2-211.53148mERBhagalpur, Bihar
50BGPBhagalpur Junction (6)X  07:15-07:30-15m--2-206.84149mERBhagalpur, Bihar
51SBOSabaur (3)X  07:40 07:41-07:41 07:49-1 8m--2-199.23642mERSabour, Bihar
52LMMLailakh Mamalkha (2)  07:59 08:00-08:00 08:01-1m--2-192.65836mERLailakh Mamlkha, Bihar
53GGAGhoga (2)  08:06 08:07-08:07 08:08-1m--2-186.86942mERGhoga, Bihar
54EKCEkchari (1)  08:12 08:13-08:13 08:15-1 2m12-181.15237mERNational Highway 80, Bihar
55CLGKahalgaon (2)  08:19 08:20-08:20 08:22-1 2m12-176.73444mERBhagalpur, Bihar
56BKSLBikram Shila (2)X  08:31 08:36-08:32 08:38-1 2m--2-168.71258mERBikram Shila, Bihar
57SVRPShivanarayanpur (2)  08:47 08:55-08:48 08:56-1m--2-165.22847mERShivanarayanpur, Bihar
58PPTPirpainti (2)  09:14 09:15-09:15 09:17-1 2m--2-156.46453mERBhagalpur, Bihar
59AMPLAmmapali (2)  09:21-09:22-1m--2-152.15040mERAmmapali, Bihar
60MZCMirza Cheuki (3)  09:26 09:27-09:27 09:28-1m32-147.91138mERBihar, Bihar
61KRMAKaramtola (2)X  10:00 10:01-10:01 10:02-1m22-141.81935mERNational Highway 80, Bihar
62SBGSahibganj Junction (3)  10:30-10:40-10m12-132.85238mERSahibganj, Jharkhand
63SLJSakrigali Junction (3)X  10:48 10:49-10:49 10:50-1m--2-125.05345mERSakrigali, Jharkhand
64MJPMaharajpur (2)X  10:56 10:57-10:57 11:05-1 8m--2-118.95434mERMoharajpur, Jharkhand
65KPTOKaranpur Ato  11:10 11:13-11:11 11:14-1m--2-111.75339mERKaranpur, Jharkhand
66TLJTaljhari  11:18 11:22-11:19 11:23-1m--2-104.74138mERTaljhari, Jharkhand
67TPHTinpahar Junction (3)  11:34 11:37-11:35 11:38-1m22-95.04045mERBamangawan, Jharkhand
68DDXDhamdhamia (2)  11:46 11:48-11:47 11:49-1m--2-88.43246mERDhamdhamia, Jharkhand
69BKLEBakudi (3)  11:52 11:53-11:53 11:55-1 2m--2-86.31565mERBakudi, Jharkhand
70BHWBarharwa Junction (3)  12:27-12:37-10m22-78.45536mERBarharwa, Jharkhand
71GMANGumani (3)  12:46 12:45-12:47 12:46-1m--2-71.05731mERGumani, Jharkhand
72KLPKotalpukur (3)X  12:54 12:53-12:55 12:54-1m--2-64.35640mERKotalpukur, Jharkhand
73TBBTilbhita (3)  13:03 13:02-13:04 13:03-1m--2-56.84231mERTilbhita, Jharkhand
74PKRPakur (2)X  13:10 13:09-13:11 13:10-1m22-52.53637mERDist:- Pakur, Jharkhand
75NGFNagarnabi (3)  13:20 13:19-13:21 13:20-1m12-47.23530mERState Highway 5, Jharkhand
76RJGRajgram (3)  13:30 13:29-13:31 13:30-1m22-42.05832mERDist - Birbhum, West Bengal
77BSBRBanshlai Bridge (2)  13:38 13:37-13:39 13:38-1m--2-35.35035mERDist - Birbhum, West Bengal
78MRRMurarai (3)  13:45 13:44-13:46 13:45-1m--2-30.35736mERDist - Birbhum, West Bengal
79CTRChatra (3)X  13:54 13:53-13:55 13:54-1m--2-22.75742mERDist - Birbhum, West Bengal
80NHTNalhati Junction (4)X  14:04 14:03-14:06 14:05-2m22-14.12348mERDist - Birbhum, West Bengal
81SDLESwadinpur (3)XO  14:14 14:24-14:15 15:16-1 52m--2-6.74544mERDIST-BIRBHUM, West Bengal
82RPH»Rampurhat (3)»X  15:26 15:25-15:41 15:40-15m--20.05441mERDIST - Birbhum, West Bengal
83TPFTarapith Road (2)  15:48-15:49-1m--27.22445mERDist - Birbhum, West Bengal
84MLV•Mallarpur (3)•XO  15:57 16:02-15:58 16:19-1 17m--212.45546mERDist - Birbhum, West Bengal
85GHLEGadadharpur (3)X  16:05 16:28-16:06 16:29-1m2220.74852mERDist - Birbhum, West Bengal
86SNTSainthia Junction (4)X  16:40 16:38-16:41 16:40-1 2m4228.06658mERDist - Birbhum, West Bengal
87BSLEBataspur (2)X  16:47-16:48-1m--235.72154mERDist - Birbhum, West Bengal
88AMPAhmadpur Junction (3)O  17:04-17:05 17:25-1 21m--241.25546mERDist - Birbhum, West Bengal
89KPLEKopai (2)X  17:34-17:35-1m--249.46148mERDist - Birbhum, West Bengal
90PNEPrantik (3)  17:42-17:43-1m--256.55148mERDist - Birbhum, West Bengal
91BHPBolpur Shantiniketan (3)X  17:49 17:48-17:52 17:51-3m--260.76059mERDist - Birbhum, West Bengal
92BDHBhedia (2)X  17:59-18:00 18:01-1 2m--268.74741mERDist - Bardhaman, West Bengal
93PCQPichkurirdhal (3)  18:07-18:08-1m--273.45338mERDist - Bardhaman, West Bengal
94GKHGuskara (2)X  18:15-18:16 18:18-1 3m1279.64841mERDist - Bardhaman, West Bengal
95NRXNoadar Dhal (2)  18:26-18:27-1m--286.13746mERdist - bardhaman, West Bengal
96BPSBanpas (3)  18:33-18:34-1m--289.71146mERDist - Bardhaman, West Bengal
97JTLJhapater Dhal (4)XO  18:54-18:55 19:28-1 34m--293.53936mERDist - Bardhaman, West Bengal
98KANKhana Junction (5)X  19:38 19:37-19:39 19:38-1m--299.45442mERDist - Bardhaman, West Bengal
99TITTalit (4)XO  19:44-19:45-1m--2104.84637mERDist - Bardhaman, West Bengal
100BWNBarddhaman Junction (8)X  19:55-20:15-20m--2112.57134mERDist - Barddhaman, West Bengal
101PDAPundooah (3) new halt!!X  20:54-20:56-2m--2158.52618mERPandua, West Bengal
102BDCBandel Junction (7)  21:45-21:50-5m--2179.73214mERdist - HOOGHLY, West Bengal
103CNSChuchura (3)  21:56 21:57-21:57 21:58-1m--2183.53615mERDist - HOOGHLY - 712102, West Bengal
104CGRChandan Nagar (3)X  22:02 22:03-22:03 22:04-1m--2186.56416mERDist -HOOGHLY - 712136, West Bengal
105SHESeoraphuli Junction (6)  22:17 22:14-22:18-1 4m--2197.13013mERBaidyabati, West Bengal
106SRPSerampore (4)X  22:22 22:23-22:23 22:25-1 2m--2199.73311mERdist - hooghly, West Bengal
107HWHKolkata Howrah Junction (23)  23:00--42219.2-10mERHowrah 711101, West Bengal
Scroll to Top
Scroll to Bottom